< < Back
Terminal Aerodrome Forecast


Current Version              Previous Versions:   1  2  3  4  5  6  7  8  9  

Terminal Aerodrome Forecast

419
FTUS42 KJAX 210500
TAFGNV
TAF
KGNV 210536Z 2106/2206 34004KT P6SM SKC
      TEMPO 2109/2112 4SM BR
     FM212100 07005KT P6SM FEW100 SCT250=



Latest METAR

748
SAUS70 KWBC 211200 RRL
MTRGNV
METAR KGNV 211153Z 00000KT 10SM CLR 19/18 A3001 RMK AO2 SLP159 T01940183
10200 20183 53017


USA.gov is the U.S. government's official web portal to all federal, state and local government web resources and services.